LJLJLJPZ

Guest
Details From LJLJ - LJUBLJANA
To LJPZ - PORTOROZ
Flight Number -
Tags decoded
Created
Modified
Stats Distance 71 nm / 132 km
Max Altitude 0 ft / 0 m
Waypoints 5
Social Downloads 1
Likes 0
Share VATSIM

Download

Looking for another format? Having issues loading an existing format? Contact us
Advertisement - Login to hide

Notes

Requested: LJLJ MG LASLO ILB LJPZ

Route

LJLJ MG LASLO ILB LJPZ

ID Type Via Altitude Latitude Longitude Leg Dist Tot Dist Heading (true) Name
O LJLJ APT - 0 ft / 0 m 46.22368˚ 14.45761˚ - 0 nm - LJUBLJANA
MG NDB - 0 ft / 0 m 46.17323˚ 14.55594˚ 5 nm 5 nm 127° / 127° LJUBLJANA NDB
LASLO FIX - 0 ft / 0 m 45.88854˚ 14.54770˚ 17 nm 22 nm 181° / 181° -
ILB NDB - 0 ft / 0 m 45.56447˚ 14.17197˚ 25 nm 47 nm 219° / 219° BISTRICA NDB
O LJPZ APT - 0 ft / 0 m 45.47244˚ 13.61568˚ 24 nm 71 nm 257° / 257° PORTOROZ

Altitude Profile

Advertisement - Login to hide

LJLJ

Details ICAO LJLJ (LJU)
Name LJUBLJANA
Region Slovenia
Timezone Europe/Ljubljana (UTC+1.0)
Stats Elevation 1,273 ft / 388 m (AMSL)
Location 46.223685° 14.457608°
Runways 1
Magnetic Variation 3.662° E

METAR

LJLJ 152330Z VRB02KT 9999 -RASN SCT003 BKN015 OVC035 01/00 Q1000 BECMG 3500 SN BKN007

Decode

TAF

TAF LJLJ 152000Z 1521/1621 11005KT 7000 -RA BKN030 OVC050 TEMPO 1521/1523 5000 RA BR BKN015 BECMG 1522/1524 2500 SN BR BKN010 OVC020 BECMG 1603/1606 4500 -SN SCT010 OVC020 BECMG 1607/1609 7000 NSW SCT010 BKN025 BECMG 1612/1615 9999 SCT020 PROB30 TEMPO 1615/1621 BKN020

Decode

Departure Runways

ID Width Length Bearing (true) Bearing (mag) Surface Threshold Offset Overrun Length
13 148 ft / 45 m 10,811 ft / 3,295 m 126.47° 122.81° Asphalt 0 ft / 0 m 0 ft / 0 m
31 148 ft / 45 m 10,811 ft / 3,295 m 306.49° 302.83° Asphalt 0 ft / 0 m 0 ft / 0 m

LJPZ

Details ICAO LJPZ (POW)
Name PORTOROZ
Region Slovenia
Timezone Europe/Ljubljana (UTC+1.0)
Stats Elevation 7 ft / 2 m (AMSL)
Location 45.472445° 13.615681°
Runways 1
Magnetic Variation 3.444° E

METAR

LJPZ 152330Z AUTO 08016KT 040V120 6000 RA SCT027/// BKN031/// 05/03 Q0999 RERA

Decode

TAF

Not found

Destination Runways

ID Width Length Bearing (true) Bearing (mag) Surface Threshold Offset Overrun Length
15 98 ft / 30 m 3,939 ft / 1,201 m 151.28° 147.84° Asphalt 0 ft / 0 m 0 ft / 0 m
33 98 ft / 30 m 3,939 ft / 1,201 m 331.29° 327.85° Asphalt 751 ft / 229 m 0 ft / 0 m

Popular Alternatives